Tropical Cyclones
[Index]
Main Index Home Page Stock Weather Photos Extreme Storms Discussion Storm News and Storm Chasing Reports Tropical Cyclones / Hurricanes / Typhoons Weather Data and Links Wild Fires / Bushfires Weather Observation Techniques Weather Picture Catalogue Tornado Pictures and Reports Stock Video Footage and DVDs for sale
Season 2003-2004 Tropical Cyclone KEN Track Map
Season 2003-2004 Summaries (Operational Data): [AU] [SIO] [SPAC] [SH]
<<- Previous TC | 2003-2004 Season | Next TC ->>

click for intensity scale information  Lat/long Grid: Show Hide

 Date Labels: Show Hide

Operational Tropical Cyclone Data : JTWC Advisories

Name: KEN
Number: 0408

01 Jan 2004 07:00 UTC to 06 Jan 2004 12:00 UTC

    date/time    lat    long     hPa   cat  kts
2004-01-01 07   16.5   125.0     998         25          
2004-01-01 10   16.6   124.5     998         25          
2004-01-01 16   16.4   122.7     998         25          
2004-01-01 22   16.4   121.8     995         30          
2004-01-02 04   16.5   119.6     995         30          
2004-01-02 10   16.5   118.5     995         30          
2004-01-02 16   16.3   117.9     995         30          
2004-01-02 22   16.3   117.7     995         30          
2004-01-03 04   16.7   117.4     995         30          
2004-01-03 10   16.8   116.7     995         30          
2004-01-03 16   17.4   116.7     995         30          
2004-01-03 22   17.9   116.4     995         30          
2004-01-04 04   18.2   115.4     995         30          
2004-01-04 10   18.5   115.2     995         30          
2004-01-04 16   18.5   114.6     995         30          
2004-01-04 19   18.7   114.4     992    1    40          
2004-01-04 22   18.9   114.6     992    1    40          
2004-01-05 04   19.4   115.0     992    1    40          
2004-01-05 07   20.1   114.9     992    1    40          
2004-01-05 10   20.6   114.6     992    1    40          
2004-01-05 16   21.0   114.4     995    1    35          
2004-01-05 19   21.2   114.3     998         30          
2004-01-06 00   21.3   113.9                             
2004-01-06 12   21.7   113.3                 18          
Winds are 10-min average.

Tropical cyclone tracks developed by Michael Bath using operational warnings and advisories and Google Maps.


[Australian Severe Weather index] [Copyright Notice] [Email Contacts] [Search This Site] [Privacy Policy]
Document: tropical_cyclone_ken.htm Updated: 28 May 2013